createdAt,value
2023-03-23T00:00:13.985Z,7.700
2023-03-23T00:01:14.312Z,8.100
2023-03-23T00:02:13.604Z,8.300
2023-03-23T00:03:14.773Z,7.700
2023-03-23T00:04:13.965Z,7.800
2023-03-23T00:05:14.272Z,7.400
2023-03-23T00:06:14.405Z,7.900
2023-03-23T00:07:13.877Z,7.700
2023-03-23T00:08:13.508Z,8.600
2023-03-23T00:09:16.502Z,8.300
2023-03-23T00:11:14.645Z,7.900
2023-03-23T00:12:14.449Z,8.000
2023-03-23T00:13:13.640Z,7.800
2023-03-23T00:14:13.563Z,7.400
2023-03-23T00:15:14.292Z,7.800
2023-03-23T00:16:20.052Z,7.400
2023-03-23T00:18:18.668Z,7.700
2023-03-23T00:19:14.283Z,7.500
2023-03-23T00:20:14.393Z,7.600
2023-03-23T00:21:13.568Z,7.400
2023-03-23T00:22:14.260Z,8.400
2023-03-23T00:23:13.364Z,7.200
2023-03-23T00:24:13.616Z,8.000
2023-03-23T00:25:14.186Z,7.500
2023-03-23T00:26:14.057Z,8.100
2023-03-23T00:27:18.937Z,7.300
2023-03-23T00:28:13.459Z,6.900
2023-03-23T00:29:13.904Z,7.700
2023-03-23T00:30:14.445Z,7.300
2023-03-23T00:31:13.661Z,7.600
2023-03-23T00:32:14.113Z,7.800
2023-03-23T00:33:14.651Z,7.500
2023-03-23T00:34:14.041Z,7.100
2023-03-23T00:35:13.418Z,7.600
2023-03-23T00:36:14.053Z,6.800
2023-03-23T00:37:13.741Z,7.000
2023-03-23T00:38:14.385Z,7.500
2023-03-23T00:39:14.385Z,7.800
2023-03-23T00:40:13.965Z,6.600
2023-03-23T00:41:15.080Z,7.900
2023-03-23T00:42:15.529Z,7.000
2023-03-23T00:44:21.992Z,6.600
2023-03-23T00:45:14.257Z,6.600
2023-03-23T00:46:13.900Z,7.400
2023-03-23T00:47:14.333Z,7.300
2023-03-23T00:48:14.031Z,7.100
2023-03-23T00:49:14.341Z,7.500
2023-03-23T00:50:14.148Z,7.000
2023-03-23T00:51:13.868Z,7.500
2023-03-23T00:52:14.288Z,7.500
2023-03-23T00:53:13.928Z,7.200
2023-03-23T00:54:14.233Z,7.200
2023-03-23T00:55:13.532Z,6.800
2023-03-23T00:56:14.581Z,7.900
2023-03-23T00:57:14.141Z,7.300
2023-03-23T00:58:13.673Z,7.700
2023-03-23T00:59:14.037Z,8.300
2023-03-23T01:00:21.894Z,8.400
2023-03-23T01:02:13.721Z,7.700
2023-03-23T01:03:13.960Z,7.900
2023-03-23T01:04:14.452Z,8.300
2023-03-23T01:05:14.205Z,7.900
2023-03-23T01:06:14.249Z,8.100
2023-03-23T01:07:13.649Z,7.800
2023-03-23T01:08:14.157Z,8.900
2023-03-23T01:09:13.472Z,7.900
2023-03-23T01:10:13.912Z,8.400
2023-03-23T01:11:14.340Z,7.300
2023-03-23T01:12:13.796Z,8.000
2023-03-23T01:13:14.450Z,8.800
2023-03-23T01:14:14.339Z,8.100
2023-03-23T01:15:13.566Z,8.600
2023-03-23T01:16:19.512Z,7.700
2023-03-23T01:18:13.988Z,7.900
2023-03-23T01:19:14.212Z,9.200
2023-03-23T01:20:13.672Z,8.400
2023-03-23T01:21:14.131Z,8.700
2023-03-23T01:22:14.385Z,8.200
2023-03-23T01:23:14.273Z,8.100
2023-03-23T01:24:13.773Z,8.800
2023-03-23T01:25:14.586Z,8.600
2023-03-23T01:26:13.786Z,8.400
2023-03-23T01:27:14.233Z,8.300
2023-03-23T01:28:14.013Z,9.000
2023-03-23T01:29:13.981Z,8.600
2023-03-23T01:30:14.225Z,8.400
2023-03-23T01:31:16.160Z,7.900
2023-03-23T01:32:13.573Z,8.800
2023-03-23T01:33:14.205Z,7.900
2023-03-23T01:34:13.401Z,8.400
2023-03-23T01:35:17.914Z,7.900
2023-03-23T01:36:14.452Z,7.800
2023-03-23T01:37:14.025Z,8.100
2023-03-23T01:38:14.260Z,7.800
2023-03-23T01:39:16.873Z,8.700
2023-03-23T01:41:13.540Z,8.600
2023-03-23T01:42:14.138Z,7.800
2023-03-23T01:43:13.504Z,7.400
2023-03-23T01:44:13.888Z,8.100
2023-03-23T01:45:14.346Z,7.100
2023-03-23T01:46:14.855Z,7.600
2023-03-23T01:47:14.704Z,7.400
2023-03-23T01:48:13.565Z,7.900
2023-03-23T01:49:14.248Z,8.400
2023-03-23T01:50:14.232Z,7.500
2023-03-23T01:51:13.726Z,7.100
2023-03-23T01:52:16.761Z,7.200
2023-03-23T01:53:13.933Z,7.700
2023-03-23T01:54:14.361Z,6.900
2023-03-23T01:55:13.825Z,7.500
2023-03-23T01:56:14.705Z,7.700
2023-03-23T01:57:13.877Z,7.000
2023-03-23T01:58:13.473Z,7.800
2023-03-23T01:59:13.785Z,7.000
2023-03-23T02:00:18.098Z,7.300
2023-03-23T02:01:13.926Z,7.400
2023-03-23T02:02:15.064Z,7.200
2023-03-23T02:03:18.469Z,7.300
2023-03-23T02:05:14.293Z,7.000
2023-03-23T02:06:14.013Z,6.700
2023-03-23T02:07:13.700Z,7.200
2023-03-23T02:08:14.012Z,6.500
2023-03-23T02:09:27.084Z,7.700
2023-03-23T02:11:21.809Z,7.300
2023-03-23T02:12:14.679Z,6.900
2023-03-23T02:13:15.159Z,7.200
2023-03-23T02:14:14.409Z,7.200
2023-03-23T02:15:15.067Z,7.300
2023-03-23T02:18:14.846Z,6.900
2023-03-23T02:19:15.599Z,7.300
2023-03-23T02:20:15.000Z,7.200
2023-03-23T02:21:15.506Z,7.100
2023-03-23T02:22:15.001Z,7.200
2023-03-23T02:23:15.505Z,7.100
2023-03-23T02:24:14.751Z,7.300
2023-03-23T02:25:15.305Z,7.400
2023-03-23T02:26:14.875Z,6.700
2023-03-23T02:27:15.825Z,7.400
2023-03-23T02:28:15.126Z,6.600
2023-03-23T02:29:14.873Z,7.300
2023-03-23T02:30:15.166Z,7.000
2023-03-23T02:31:14.893Z,6.400
2023-03-23T02:32:15.326Z,7.000
2023-03-23T02:33:15.214Z,6.900
2023-03-23T02:34:15.095Z,6.900
2023-03-23T02:35:15.449Z,6.700
2023-03-23T02:36:14.972Z,7.500
2023-03-23T02:37:15.416Z,6.400
2023-03-23T02:38:14.861Z,6.800
2023-03-23T02:39:15.320Z,6.400
2023-03-23T02:40:14.996Z,6.700
2023-03-23T02:41:15.360Z,6.700
2023-03-23T02:42:16.891Z,6.200
2023-03-23T02:43:14.695Z,6.700
2023-03-23T02:44:15.404Z,6.300
2023-03-23T02:45:15.069Z,5.800
2023-03-23T02:46:16.239Z,6.100
2023-03-23T02:47:15.209Z,6.300
2023-03-23T02:48:14.873Z,5.800
2023-03-23T02:49:15.635Z,6.400
2023-03-23T02:50:14.686Z,6.300
2023-03-23T02:51:14.995Z,5.900
2023-03-23T02:52:18.385Z,5.800
2023-03-23T02:53:14.906Z,6.500
2023-03-23T02:54:15.651Z,6.500
2023-03-23T02:55:14.923Z,6.700
2023-03-23T02:56:15.057Z,5.700
2023-03-23T02:57:14.457Z,5.600
2023-03-23T02:58:15.406Z,5.600
2023-03-23T02:59:14.717Z,5.500
2023-03-23T03:00:15.129Z,5.700
2023-03-23T03:01:15.507Z,5.500
2023-03-23T03:02:15.838Z,5.200
2023-03-23T03:03:14.842Z,5.200
2023-03-23T03:04:16.316Z,5.300
2023-03-23T03:05:15.277Z,5.700
2023-03-23T03:06:16.419Z,4.800
2023-03-23T03:07:15.800Z,5.200
2023-03-23T03:08:15.521Z,4.700
2023-03-23T03:10:18.844Z,5.700
2023-03-23T03:12:14.652Z,5.300
2023-03-23T03:13:15.596Z,4.800
2023-03-23T03:14:15.344Z,4.900
2023-03-23T03:15:15.493Z,4.700
2023-03-23T03:16:15.117Z,5.400
2023-03-23T03:18:14.984Z,5.300
2023-03-23T03:19:17.334Z,4.900
2023-03-23T03:20:15.553Z,5.300
2023-03-23T03:21:16.636Z,5.000
2023-03-23T03:22:15.610Z,4.600
2023-03-23T03:23:15.129Z,4.900
2023-03-23T03:24:15.309Z,5.200
2023-03-23T03:25:23.365Z,4.800
2023-03-23T03:27:15.331Z,4.700
2023-03-23T03:28:14.788Z,4.700
2023-03-23T03:29:14.310Z,4.500
2023-03-23T03:30:14.793Z,4.300
2023-03-23T03:31:15.302Z,4.900
2023-03-23T03:32:15.071Z,4.200
2023-03-23T03:33:15.444Z,4.700
2023-03-23T03:34:14.860Z,4.600
2023-03-23T03:35:16.312Z,4.500
2023-03-23T03:36:15.164Z,5.000
2023-03-23T03:37:14.996Z,4.000
2023-03-23T03:38:16.004Z,4.000
2023-03-23T03:39:15.345Z,4.500
2023-03-23T03:40:15.072Z,4.100
2023-03-23T03:41:15.772Z,4.000
2023-03-23T03:42:15.648Z,4.500
2023-03-23T03:43:15.224Z,4.100
2023-03-23T03:44:15.184Z,4.300
2023-03-23T03:46:15.547Z,3.800
2023-03-23T03:47:14.797Z,4.100
2023-03-23T03:48:15.954Z,3.800
2023-03-23T03:49:15.890Z,4.400
2023-03-23T03:50:15.561Z,3.900
2023-03-23T03:51:14.866Z,4.500
2023-03-23T03:52:15.150Z,4.600
2023-03-23T03:53:14.441Z,3.900
2023-03-23T03:54:14.949Z,4.000
2023-03-23T03:55:15.880Z,4.300
2023-03-23T03:56:15.170Z,4.600
2023-03-23T03:57:15.186Z,4.100
2023-03-23T03:58:14.833Z,4.200
2023-03-23T03:59:26.680Z,3.900
2023-03-23T04:01:17.358Z,3.500
2023-03-23T04:02:16.331Z,4.300
2023-03-23T04:03:16.265Z,4.400
2023-03-23T04:04:16.066Z,4.400
2023-03-23T04:06:17.056Z,4.000
2023-03-23T04:07:16.376Z,4.000
2023-03-23T04:08:25.602Z,3.400
2023-03-23T04:09:24.128Z,3.700
2023-03-23T04:10:32.507Z,4.200
2023-03-23T04:12:19.036Z,3.800
2023-03-23T04:13:19.336Z,4.000
2023-03-23T04:15:23.935Z,4.000
2023-03-23T04:16:31.972Z,3.800
2023-03-23T04:18:27.328Z,3.700
2023-03-23T04:19:25.124Z,3.900
2023-03-23T04:20:31.581Z,3.900
2023-03-23T04:21:25.457Z,3.900
2023-03-23T04:22:24.773Z,3.700
2023-03-23T04:23:30.725Z,3.900
2023-03-23T04:24:55.936Z,4.300
2023-03-23T04:26:39.754Z,3.600
2023-03-23T04:28:38.585Z,3.700
2023-03-23T04:29:38.168Z,3.600
2023-03-23T04:30:37.961Z,3.300
2023-03-23T04:31:41.942Z,3.600
2023-03-23T04:32:38.874Z,3.700
2023-03-23T04:33:55.710Z,3.600
2023-03-23T04:35:47.986Z,3.500
2023-03-23T04:36:57.905Z,3.900
2023-03-23T04:38:47.964Z,3.700
2023-03-23T04:39:48.273Z,3.700
2023-03-23T04:40:47.585Z,4.200
2023-03-23T04:41:47.772Z,4.200
2023-03-23T04:42:47.984Z,4.100
2023-03-23T04:43:48.264Z,4.100
2023-03-23T04:44:47.573Z,3.600
2023-03-23T04:45:47.908Z,4.000
2023-03-23T04:46:48.204Z,4.100
2023-03-23T04:47:47.441Z,4.100
2023-03-23T04:48:47.704Z,4.200
2023-03-23T04:49:48.379Z,4.200
2023-03-23T04:50:47.629Z,4.300
2023-03-23T04:51:48.189Z,4.300
2023-03-23T04:52:50.758Z,4.000
2023-03-23T04:54:47.377Z,3.700
2023-03-23T04:55:47.585Z,4.300
2023-03-23T04:56:47.965Z,3.800
2023-03-23T04:57:48.389Z,4.100
2023-03-23T04:58:48.602Z,4.200
2023-03-23T04:59:47.793Z,4.100
2023-03-23T05:00:48.305Z,4.500
2023-03-23T05:01:47.622Z,3.700
2023-03-23T05:02:49.520Z,4.200
2023-03-23T05:03:48.061Z,4.200
2023-03-23T05:04:48.359Z,4.400
2023-03-23T05:05:47.699Z,4.100
2023-03-23T05:06:48.004Z,3.900
2023-03-23T05:07:48.611Z,4.200
2023-03-23T05:08:47.921Z,3.600
2023-03-23T05:09:47.332Z,4.100
2023-03-23T05:10:52.581Z,3.600
2023-03-23T05:11:47.770Z,4.400
2023-03-23T05:12:47.972Z,4.100
2023-03-23T05:13:48.373Z,4.200
2023-03-23T05:14:53.543Z,3.900
2023-03-23T05:15:50.488Z,4.100
2023-03-23T05:16:47.993Z,3.900
2023-03-23T05:17:48.252Z,3.900
2023-03-23T05:18:47.478Z,3.300
2023-03-23T05:19:47.720Z,3.900
2023-03-23T05:20:47.941Z,4.500
2023-03-23T05:21:49.288Z,4.200
2023-03-23T05:23:47.713Z,4.200
2023-03-23T05:24:47.873Z,3.900
2023-03-23T05:25:48.105Z,3.900
2023-03-23T05:26:49.645Z,4.100
2023-03-23T05:29:48.541Z,4.200
2023-03-23T05:30:47.732Z,3.700
2023-03-23T05:31:48.218Z,4.200
2023-03-23T05:32:47.440Z,4.100
2023-03-23T05:33:47.704Z,4.000
2023-03-23T05:34:48.002Z,4.000
2023-03-23T05:35:48.642Z,3.700
2023-03-23T05:36:47.872Z,3.700
2023-03-23T05:37:48.149Z,3.800
2023-03-23T05:38:47.432Z,3.900
2023-03-23T05:39:47.648Z,3.900
2023-03-23T05:40:47.852Z,4.000
2023-03-23T05:41:48.360Z,3.900
2023-03-23T05:42:48.044Z,3.700
2023-03-23T05:43:48.328Z,3.900
2023-03-23T05:44:51.091Z,4.100
2023-03-23T05:46:47.468Z,3.500
2023-03-23T05:47:47.797Z,3.800
2023-03-23T05:48:48.414Z,4.200
2023-03-23T05:49:47.633Z,3.400
2023-03-23T05:50:47.909Z,3.800
2023-03-23T05:51:48.180Z,3.800
2023-03-23T05:52:47.306Z,3.600
2023-03-23T05:53:48.149Z,3.900
2023-03-23T05:54:47.441Z,4.000
2023-03-23T05:55:47.666Z,4.100
2023-03-23T05:56:48.150Z,3.600
2023-03-23T05:57:47.329Z,3.600
2023-03-23T05:58:47.795Z,3.800
2023-03-23T05:59:48.269Z,4.000
2023-03-23T06:00:48.017Z,3.700
2023-03-23T06:01:52.545Z,3.800
2023-03-23T06:02:47.823Z,3.500
2023-03-23T06:03:48.414Z,3.900
2023-03-23T06:04:47.726Z,3.300
2023-03-23T06:05:47.398Z,3.400
2023-03-23T06:06:47.954Z,3.700
2023-03-23T06:07:48.299Z,3.600
2023-03-23T06:08:47.552Z,3.500
2023-03-23T06:09:47.772Z,4.100
2023-03-23T06:10:47.776Z,3.700
2023-03-23T06:11:47.976Z,4.000
2023-03-23T06:12:48.252Z,4.000
2023-03-23T06:13:47.436Z,3.700
2023-03-23T06:14:47.932Z,3.700
2023-03-23T06:15:48.235Z,3.800
2023-03-23T06:16:47.405Z,3.900
2023-03-23T06:17:47.625Z,3.900
2023-03-23T06:18:47.860Z,4.300
2023-03-23T06:19:48.091Z,4.800
2023-03-23T06:20:49.548Z,4.300
2023-03-23T06:21:47.828Z,5.600
2023-03-23T06:22:48.140Z,5.800
2023-03-23T06:23:47.366Z,5.800
2023-03-23T06:24:47.701Z,4.500
2023-03-23T06:25:49.757Z,3.900
2023-03-23T06:27:50.361Z,4.200
2023-03-23T06:28:47.676Z,4.400
2023-03-23T06:29:47.898Z,4.500
2023-03-23T06:30:48.129Z,3.900
2023-03-23T06:31:48.356Z,4.000
2023-03-23T06:32:47.514Z,4.200
2023-03-23T06:33:47.819Z,4.100
2023-03-23T06:34:48.049Z,4.100
2023-03-23T06:35:48.334Z,3.900
2023-03-23T06:36:47.604Z,3.900
2023-03-23T06:37:47.788Z,3.600
2023-03-23T06:38:48.024Z,3.800
2023-03-23T06:39:48.256Z,4.100
2023-03-23T06:40:47.488Z,3.700
2023-03-23T06:41:47.708Z,4.300
2023-03-23T06:42:47.939Z,4.100
2023-03-23T06:43:48.225Z,3.700
2023-03-23T06:44:47.365Z,3.600
2023-03-23T06:45:48.205Z,3.700
2023-03-23T06:46:47.409Z,4.100
2023-03-23T06:47:47.858Z,3.700
2023-03-23T06:48:48.373Z,3.900
2023-03-23T06:49:47.849Z,3.700
2023-03-23T06:50:48.137Z,3.600
2023-03-23T06:51:47.349Z,3.700
2023-03-23T06:52:47.621Z,4.000
2023-03-23T06:53:47.861Z,4.300
2023-03-23T06:54:48.175Z,4.400
2023-03-23T06:55:47.384Z,4.200
2023-03-23T06:56:47.603Z,4.300
2023-03-23T06:57:47.852Z,4.200
2023-03-23T06:58:48.301Z,4.500
2023-03-23T06:59:47.502Z,4.000
2023-03-23T07:00:47.857Z,4.000
2023-03-23T07:01:48.340Z,4.400
2023-03-23T07:02:47.537Z,4.000
2023-03-23T07:03:47.778Z,5.100
2023-03-23T07:04:48.072Z,4.500
2023-03-23T07:05:48.344Z,5.000
2023-03-23T07:06:47.620Z,5.500
2023-03-23T07:07:48.177Z,4.800
2023-03-23T07:08:47.377Z,4.500
2023-03-23T07:09:57.548Z,4.900
2023-03-23T07:11:47.931Z,4.700
2023-03-23T07:12:48.176Z,4.300
2023-03-23T07:13:47.365Z,4.600
2023-03-23T07:14:47.619Z,4.400
2023-03-23T07:15:47.836Z,4.600
2023-03-23T07:16:48.157Z,5.000
2023-03-23T07:17:47.346Z,4.400
2023-03-23T07:18:47.584Z,4.100
2023-03-23T07:19:48.124Z,4.500
2023-03-23T07:20:48.661Z,3.800
2023-03-23T07:21:47.786Z,4.100
2023-03-23T07:22:48.681Z,3.900
2023-03-23T07:23:47.889Z,4.000
2023-03-23T07:24:48.096Z,4.500
2023-03-23T07:25:48.306Z,4.000
2023-03-23T07:26:47.504Z,4.000
2023-03-23T07:27:47.741Z,4.200
2023-03-23T07:28:47.968Z,4.300
2023-03-23T07:29:48.221Z,4.500
2023-03-23T07:30:47.411Z,5.100
2023-03-23T07:31:47.644Z,4.300
2023-03-23T07:32:47.921Z,4.500
2023-03-23T07:33:48.116Z,4.000
2023-03-23T07:34:47.334Z,4.100
2023-03-23T07:35:47.697Z,4.400
2023-03-23T07:36:48.220Z,3.900
2023-03-23T07:37:47.472Z,3.600
2023-03-23T07:38:47.696Z,4.000
2023-03-23T07:39:47.880Z,4.400
2023-03-23T07:40:48.304Z,4.200
2023-03-23T07:41:47.618Z,5.000
2023-03-23T07:42:47.897Z,4.800
2023-03-23T07:43:48.097Z,4.500
2023-03-23T07:44:48.398Z,4.900
2023-03-23T07:45:47.588Z,4.800
2023-03-23T07:46:47.913Z,4.900
2023-03-23T07:47:51.356Z,4.600
2023-03-23T07:49:52.089Z,4.600
2023-03-23T07:51:47.595Z,4.900
2023-03-23T07:52:50.685Z,5.100
2023-03-23T07:53:48.958Z,6.400
2023-03-23T07:54:48.233Z,8.100
2023-03-23T07:55:52.654Z,5.400
2023-03-23T07:57:48.357Z,5.200
2023-03-23T07:58:47.615Z,4.800
2023-03-23T07:59:48.238Z,5.200
2023-03-23T08:01:47.608Z,5.500
2023-03-23T08:02:52.532Z,4.600
2023-03-23T08:04:48.132Z,4.400
2023-03-23T08:05:47.360Z,5.300
2023-03-23T08:06:47.589Z,5.800
2023-03-23T08:07:52.723Z,4.800
2023-03-23T08:08:47.960Z,5.000
2023-03-23T08:09:48.229Z,5.200
2023-03-23T08:10:49.401Z,5.200
2023-03-23T08:12:48.278Z,6.400
2023-03-23T08:13:47.577Z,5.300
2023-03-23T08:14:49.850Z,6.000
2023-03-23T08:15:48.006Z,5.200
2023-03-23T08:16:48.325Z,5.700
2023-03-23T08:17:47.510Z,6.300
2023-03-23T08:18:47.757Z,5.200
2023-03-23T08:19:47.971Z,5.200
2023-03-23T08:20:48.257Z,5.200
2023-03-23T08:21:47.421Z,5.400
2023-03-23T08:22:53.623Z,5.800
2023-03-23T08:23:47.805Z,6.000
2023-03-23T08:24:48.033Z,6.400
2023-03-23T08:25:48.273Z,5.300
2023-03-23T08:26:47.906Z,5.700
2023-03-23T08:27:48.164Z,5.100
2023-03-23T08:28:49.968Z,5.500
2023-03-23T08:29:48.593Z,5.800
2023-03-23T08:30:47.812Z,6.100
2023-03-23T08:31:48.073Z,5.500
2023-03-23T08:32:48.252Z,6.100
2023-03-23T08:33:47.412Z,5.400
2023-03-23T08:34:48.457Z,5.300
2023-03-23T08:35:47.710Z,5.500
2023-03-23T08:36:48.081Z,5.400
2023-03-23T08:37:48.327Z,5.500
2023-03-23T08:38:47.892Z,5.800
2023-03-23T08:39:49.972Z,5.300
2023-03-23T08:42:59.399Z,5.400
2023-03-23T08:44:48.113Z,5.100
2023-03-23T08:45:48.194Z,4.900
2023-03-23T08:46:47.549Z,4.900
2023-03-23T08:47:47.885Z,5.600
2023-03-23T08:48:48.122Z,5.800
2023-03-23T08:49:48.402Z,5.800
2023-03-23T08:50:47.638Z,6.500
2023-03-23T08:51:47.909Z,5.800
2023-03-23T08:52:48.214Z,5.500
2023-03-23T08:53:48.273Z,5.000
2023-03-23T08:54:47.553Z,5.500
2023-03-23T08:55:47.844Z,5.000
2023-03-23T08:56:48.124Z,5.100
2023-03-23T08:57:47.340Z,5.000
2023-03-23T08:58:47.528Z,5.600
2023-03-23T08:59:47.980Z,5.100
2023-03-23T09:00:56.222Z,5.100
2023-03-23T09:02:48.012Z,5.300
2023-03-23T09:03:48.217Z,5.700
2023-03-23T09:04:47.409Z,5.100
2023-03-23T09:05:47.580Z,5.000
2023-03-23T09:06:47.812Z,5.400
2023-03-23T09:07:48.088Z,5.400
2023-03-23T09:08:47.332Z,5.300
2023-03-23T09:09:48.729Z,4.900
2023-03-23T09:11:47.476Z,4.900
2023-03-23T09:12:47.754Z,4.600
2023-03-23T09:13:47.949Z,5.200
2023-03-23T09:14:48.217Z,5.500
2023-03-23T09:15:57.279Z,5.100
2023-03-23T09:17:48.328Z,5.200
2023-03-23T09:18:47.732Z,5.000
2023-03-23T09:19:53.013Z,5.200
2023-03-23T09:21:53.050Z,5.100
2023-03-23T09:22:48.258Z,4.600
2023-03-23T09:23:47.449Z,4.800
2023-03-23T09:24:47.745Z,4.600
2023-03-23T09:25:48.129Z,4.500
2023-03-23T09:26:48.380Z,4.700
2023-03-23T09:27:47.691Z,3.600
2023-03-23T09:28:47.958Z,4.500
2023-03-23T09:29:48.209Z,4.900
2023-03-23T09:30:53.913Z,4.400
2023-03-23T09:31:48.170Z,4.600
2023-03-23T09:32:47.397Z,4.000
2023-03-23T09:33:48.684Z,4.700
2023-03-23T09:35:48.204Z,4.600
2023-03-23T09:36:47.449Z,4.800
2023-03-23T09:37:48.904Z,4.700
2023-03-23T09:38:48.185Z,4.800
2023-03-23T09:39:54.209Z,4.500
2023-03-23T09:41:52.408Z,4.500
2023-03-23T09:42:52.054Z,4.600
2023-03-23T09:43:52.309Z,4.500
2023-03-23T09:44:51.824Z,4.900
2023-03-23T09:45:52.148Z,4.600
2023-03-23T09:46:51.464Z,5.000
2023-03-23T09:47:51.708Z,4.800
2023-03-23T09:48:52.039Z,5.200
2023-03-23T09:49:56.333Z,6.900
2023-03-23T09:51:51.805Z,13.900
2023-03-23T09:52:52.125Z,8.300
2023-03-23T09:53:51.438Z,5.600
2023-03-23T09:54:58.089Z,8.300
2023-03-23T09:55:59.576Z,8.200
2023-03-23T09:56:58.611Z,7.300
2023-03-23T09:57:58.897Z,7.400
2023-03-23T09:58:58.600Z,6.800
2023-03-23T09:59:58.909Z,6.900
2023-03-23T10:00:59.353Z,5.800
2023-03-23T10:02:52.589Z,5.100
2023-03-23T10:03:51.757Z,5.500
2023-03-23T10:04:52.005Z,5.300
2023-03-23T10:05:52.461Z,4.800
2023-03-23T10:06:52.349Z,4.800
2023-03-23T10:07:51.564Z,5.100
2023-03-23T10:08:59.017Z,6.400
2023-03-23T10:11:51.749Z,5.600
2023-03-23T10:12:52.258Z,4.900
2023-03-23T10:13:51.516Z,5.300
2023-03-23T10:14:51.832Z,5.100
2023-03-23T10:15:52.164Z,4.800
2023-03-23T10:16:51.531Z,5.300
2023-03-23T10:17:51.973Z,5.500
2023-03-23T10:18:52.441Z,4.700
2023-03-23T10:19:51.668Z,4.800
2023-03-23T10:20:52.114Z,5.400
2023-03-23T10:21:52.346Z,4.900
2023-03-23T10:22:51.549Z,4.900
2023-03-23T10:23:51.794Z,4.700
2023-03-23T10:24:52.094Z,4.900
2023-03-23T10:25:51.400Z,4.800
2023-03-23T10:26:51.706Z,4.700
2023-03-23T10:27:51.952Z,4.900
2023-03-23T10:28:52.289Z,5.400
2023-03-23T10:29:51.554Z,5.100
2023-03-23T10:30:51.955Z,5.000
2023-03-23T10:31:52.186Z,4.800
2023-03-23T10:32:51.397Z,4.600
2023-03-23T10:33:51.657Z,4.500
2023-03-23T10:34:52.001Z,4.100
2023-03-23T10:35:52.589Z,4.600
2023-03-23T10:36:51.945Z,4.600
2023-03-23T10:37:52.221Z,4.100
2023-03-23T10:38:51.720Z,4.400
2023-03-23T10:39:52.004Z,4.100
2023-03-23T10:40:56.981Z,3.900
2023-03-23T10:41:52.281Z,4.700
2023-03-23T10:42:51.664Z,4.100
2023-03-23T10:43:52.028Z,4.100
2023-03-23T10:44:52.326Z,4.400
2023-03-23T10:46:00.388Z,4.400
2023-03-23T10:47:04.952Z,4.400
2023-03-23T10:48:53.225Z,4.300
2023-03-23T10:49:52.532Z,3.900
2023-03-23T10:50:52.830Z,3.700
2023-03-23T10:51:53.146Z,3.900
2023-03-23T10:52:52.294Z,4.200
2023-03-23T10:53:52.606Z,3.700
2023-03-23T10:54:52.909Z,3.700
2023-03-23T10:55:53.117Z,3.600
2023-03-23T10:57:05.312Z,3.600
2023-03-23T10:58:53.717Z,3.000
2023-03-23T10:59:54.038Z,3.800
2023-03-23T11:00:54.841Z,3.600
2023-03-23T11:01:54.225Z,3.100
2023-03-23T11:02:58.434Z,2.700
2023-03-23T11:03:53.725Z,2.800
2023-03-23T11:04:53.964Z,2.900
2023-03-23T11:05:55.040Z,2.600
2023-03-23T11:06:54.374Z,2.400
2023-03-23T11:07:53.568Z,2.500
2023-03-23T11:08:53.844Z,2.500
2023-03-23T11:09:54.099Z,2.800
2023-03-23T11:10:54.911Z,2.500
2023-03-23T11:12:01.330Z,2.700
2023-03-23T11:14:53.483Z,2.700
2023-03-23T11:15:53.668Z,2.200
2023-03-23T11:16:53.944Z,2.400
2023-03-23T11:17:54.155Z,2.200
2023-03-23T11:18:53.596Z,2.400
2023-03-23T11:19:53.809Z,2.000
2023-03-23T11:20:54.062Z,2.400
2023-03-23T11:21:54.299Z,2.400
2023-03-23T11:22:53.917Z,2.400
2023-03-23T11:24:09.191Z,2.100
2023-03-23T11:25:57.257Z,2.300
2023-03-23T11:27:06.297Z,2.500
2023-03-23T11:28:56.869Z,2.700
2023-03-23T11:30:00.190Z,2.300
2023-03-23T11:30:58.372Z,2.700
2023-03-23T11:32:56.803Z,2.600
2023-03-23T11:34:06.210Z,2.400
2023-03-23T11:35:10.452Z,2.600
2023-03-23T11:37:00.543Z,2.500
2023-03-23T11:37:58.787Z,2.100
2023-03-23T11:38:59.029Z,2.500
2023-03-23T11:39:59.277Z,2.300
2023-03-23T11:40:58.620Z,2.200
2023-03-23T11:42:09.385Z,2.500
2023-03-23T11:43:59.117Z,2.900
2023-03-23T11:44:58.360Z,2.600
2023-03-23T11:45:59.152Z,2.400
2023-03-23T11:46:58.440Z,2.400
2023-03-23T11:47:58.643Z,2.500
2023-03-23T11:48:58.949Z,2.400
2023-03-23T11:50:01.188Z,2.800
2023-03-23T11:50:58.369Z,2.700
2023-03-23T11:51:58.625Z,2.900
2023-03-23T11:52:58.833Z,2.700
2023-03-23T11:53:59.086Z,2.400
2023-03-23T11:55:00.569Z,2.700
2023-03-23T11:55:59.344Z,2.800
2023-03-23T11:56:58.651Z,2.700
2023-03-23T11:57:58.905Z,2.600
2023-03-23T11:58:59.133Z,2.400
2023-03-23T11:59:58.458Z,2.700
2023-03-23T12:00:58.794Z,2.900
2023-03-23T12:02:11.697Z,2.800
2023-03-23T12:04:02.081Z,2.600
2023-03-23T12:05:03.210Z,2.300
2023-03-23T12:06:01.485Z,3.500
2023-03-23T12:07:03.417Z,2.700
2023-03-23T12:08:01.640Z,2.300
2023-03-23T12:09:01.992Z,2.900
2023-03-23T12:10:02.293Z,2.700
2023-03-23T12:11:08.235Z,2.900
2023-03-23T12:13:01.813Z,3.100
2023-03-23T12:14:08.836Z,3.100
2023-03-23T12:16:02.477Z,3.000
2023-03-23T12:17:01.810Z,3.000
2023-03-23T12:18:02.296Z,3.000
2023-03-23T12:19:01.649Z,2.500
2023-03-23T12:20:01.933Z,3.100
2023-03-23T12:21:07.091Z,3.100
2023-03-23T12:22:02.221Z,3.200
2023-03-23T12:23:01.733Z,2.800
2023-03-23T12:24:05.245Z,2.800
2023-03-23T12:25:01.518Z,3.100
2023-03-23T12:26:02.009Z,2.500
2023-03-23T12:27:02.301Z,2.900
2023-03-23T12:28:01.536Z,2.600
2023-03-23T12:29:01.798Z,2.900
2023-03-23T12:30:02.027Z,3.300
2023-03-23T12:31:02.245Z,3.200
2023-03-23T12:32:01.417Z,2.400
2023-03-23T12:33:01.632Z,2.500
2023-03-23T12:34:02.060Z,2.800
2023-03-23T12:35:02.353Z,4.000
2023-03-23T12:36:01.986Z,4.400
2023-03-23T12:37:02.444Z,3.200
2023-03-23T12:38:01.685Z,3.000
2023-03-23T12:39:01.996Z,2.500
2023-03-23T12:40:02.304Z,2.700
2023-03-23T12:41:03.883Z,3.000
2023-03-23T12:43:01.469Z,2.600
2023-03-23T12:44:01.704Z,2.400
2023-03-23T12:45:01.993Z,2.500
2023-03-23T12:46:02.636Z,2.800
2023-03-23T12:47:01.848Z,2.400
2023-03-23T12:48:02.154Z,2.400
2023-03-23T12:49:01.373Z,2.300
2023-03-23T12:50:01.645Z,2.200
2023-03-23T12:51:01.938Z,2.500
2023-03-23T12:52:02.184Z,2.700
2023-03-23T12:53:01.436Z,2.300
2023-03-23T12:54:01.757Z,2.800
2023-03-23T12:55:02.025Z,2.800
2023-03-23T12:56:02.457Z,2.200
2023-03-23T12:57:01.850Z,2.400
2023-03-23T12:58:02.074Z,2.300
2023-03-23T12:59:03.193Z,2.300
2023-03-23T13:02:02.052Z,2.200
2023-03-23T13:03:02.327Z,2.300
2023-03-23T13:04:01.719Z,2.700
2023-03-23T13:05:02.016Z,2.100
2023-03-23T13:06:02.255Z,2.400
2023-03-23T13:07:01.541Z,2.300
2023-03-23T13:08:01.849Z,2.300
2023-03-23T13:09:02.196Z,2.200
2023-03-23T13:10:01.498Z,2.300
2023-03-23T13:11:01.600Z,2.200
2023-03-23T13:12:01.856Z,2.200
2023-03-23T13:13:02.252Z,2.600
2023-03-23T13:14:11.010Z,2.500
2023-03-23T13:15:02.216Z,2.400
2023-03-23T13:16:01.744Z,2.500
2023-03-23T13:17:01.985Z,2.500
2023-03-23T13:18:02.260Z,2.400
2023-03-23T13:19:01.519Z,2.200
2023-03-23T13:20:01.817Z,2.300
2023-03-23T13:21:02.101Z,2.100
2023-03-23T13:22:09.093Z,2.000
2023-03-23T13:24:01.617Z,2.100
2023-03-23T13:25:04.972Z,2.600
2023-03-23T13:26:02.225Z,2.400
2023-03-23T13:27:01.438Z,2.000
2023-03-23T13:28:01.626Z,2.300
2023-03-23T13:29:01.817Z,2.200
2023-03-23T13:30:02.097Z,2.400
2023-03-23T13:31:02.291Z,2.300
2023-03-23T13:32:01.608Z,2.300
2023-03-23T13:33:11.693Z,2.100
2023-03-23T13:35:02.280Z,2.200
2023-03-23T13:36:06.054Z,2.300
2023-03-23T13:38:01.928Z,2.300
2023-03-23T13:39:02.181Z,2.500
2023-03-23T13:40:02.484Z,2.700
2023-03-23T13:41:02.010Z,2.600
2023-03-23T13:42:02.369Z,2.200
2023-03-23T13:43:01.669Z,2.500
2023-03-23T13:44:01.905Z,2.100
2023-03-23T13:45:02.082Z,2.300
2023-03-23T13:46:02.656Z,2.300
2023-03-23T13:47:01.845Z,2.700
2023-03-23T13:48:02.055Z,2.200
2023-03-23T13:49:14.522Z,2.400
2023-03-23T13:51:03.307Z,2.300
2023-03-23T13:52:02.661Z,2.700
2023-03-23T13:53:03.122Z,2.600
2023-03-23T13:54:02.460Z,3.200
2023-03-23T13:55:02.729Z,3.000
2023-03-23T13:56:12.170Z,2.600
2023-03-23T13:58:02.741Z,2.700
2023-03-23T13:59:04.945Z,2.800
2023-03-23T14:01:02.461Z,2.900
2023-03-23T14:02:02.696Z,2.900
2023-03-23T14:03:02.916Z,2.800
2023-03-23T14:04:03.219Z,2.900